createdAt,value
2022-10-08T00:03:47.798Z,15.95
2022-10-08T00:08:54.063Z,14.98
2022-10-08T00:13:57.265Z,15.20
2022-10-08T00:19:01.844Z,14.18
2022-10-08T00:24:07.922Z,12.63
2022-10-08T00:29:13.522Z,12.32
2022-10-08T00:34:18.015Z,12.20
2022-10-08T00:49:49.132Z,10.95
2022-10-08T00:54:53.131Z,12.02
2022-10-08T00:59:56.494Z,12.85
2022-10-08T01:04:59.225Z,11.27
2022-10-08T01:10:09.847Z,11.38
2022-10-08T01:15:22.333Z,11.68
2022-10-08T01:20:45.293Z,10.68
2022-10-08T01:25:57.580Z,10.68
2022-10-08T01:31:07.073Z,10.57
2022-10-08T01:36:11.279Z,7.70
2022-10-08T01:41:17.983Z,7.85
2022-10-08T01:46:26.314Z,7.90
2022-10-08T01:51:33.334Z,7.63
2022-10-08T01:56:39.154Z,7.28
2022-10-08T02:01:52.057Z,7.63
2022-10-08T02:06:58.168Z,8.30
2022-10-08T02:12:00.713Z,9.30
2022-10-08T02:17:14.746Z,8.93
2022-10-08T02:22:21.078Z,8.68
2022-10-08T02:27:30.686Z,8.32
2022-10-08T02:32:39.418Z,8.70
2022-10-08T02:37:46.222Z,8.40
2022-10-08T02:42:54.560Z,7.38
2022-10-08T02:48:02.188Z,7.88
2022-10-08T02:53:05.261Z,6.47
2022-10-08T02:58:10.436Z,6.97
2022-10-08T03:03:16.495Z,6.25
2022-10-08T03:08:19.739Z,5.80
2022-10-08T03:13:24.426Z,5.15
2022-10-08T03:18:28.755Z,5.47
2022-10-08T03:23:31.338Z,5.03
2022-10-08T03:28:34.022Z,5.82
2022-10-08T03:33:38.117Z,5.25
2022-10-08T03:38:40.692Z,5.53
2022-10-08T03:43:43.598Z,5.25
2022-10-08T03:48:49.811Z,5.60
2022-10-08T03:53:52.349Z,5.47
2022-10-08T03:58:56.479Z,5.78
2022-10-08T04:04:00.490Z,6.13
2022-10-08T04:09:03.059Z,5.93
2022-10-08T04:14:05.915Z,5.70
2022-10-08T04:19:11.816Z,5.57
2022-10-08T04:24:14.512Z,5.28
2022-10-08T04:29:17.292Z,5.70
2022-10-08T04:34:21.198Z,5.32
2022-10-08T04:39:23.759Z,5.60
2022-10-08T04:44:26.415Z,5.00
2022-10-08T04:49:30.392Z,5.28
2022-10-08T04:54:32.951Z,5.78
2022-10-08T04:59:35.495Z,4.68
2022-10-08T05:04:39.490Z,4.82
2022-10-08T05:09:42.051Z,4.28
2022-10-08T05:14:44.591Z,4.68
2022-10-08T05:19:48.539Z,5.35
2022-10-08T05:24:51.190Z,4.72
2022-10-08T05:29:53.732Z,4.57
2022-10-08T05:34:57.812Z,4.45
2022-10-08T05:40:03.419Z,4.63
2022-10-08T05:45:07.120Z,4.47
2022-10-08T05:50:11.261Z,4.23
2022-10-08T05:55:13.909Z,4.18
2022-10-08T06:00:19.830Z,4.18
2022-10-08T06:05:23.874Z,4.82
2022-10-08T06:10:26.527Z,4.00
2022-10-08T06:15:29.099Z,4.93
2022-10-08T06:20:33.455Z,4.10
2022-10-08T06:30:40.942Z,4.38
2022-10-08T06:35:44.969Z,4.22
2022-10-08T06:40:47.555Z,5.07
2022-10-08T06:45:51.413Z,3.07
2022-10-08T06:51:00.828Z,4.50
2022-10-08T06:56:05.328Z,5.18
2022-10-08T07:06:13.784Z,3.40
2022-10-08T07:11:18.497Z,3.10
2022-10-08T07:16:23.251Z,3.15
2022-10-08T07:21:28.660Z,3.28
2022-10-08T07:26:34.351Z,3.53
2022-10-08T07:31:38.592Z,2.67
2022-10-08T07:36:42.792Z,3.65
2022-10-08T07:41:45.744Z,2.38
2022-10-08T07:46:50.266Z,2.83
2022-10-08T07:51:54.203Z,2.20
2022-10-08T07:56:56.766Z,2.33
2022-10-08T08:01:59.360Z,2.63
2022-10-08T08:07:03.266Z,1.70
2022-10-08T08:12:05.861Z,2.17
2022-10-08T08:17:08.595Z,1.95
2022-10-08T08:22:15.469Z,2.15
2022-10-08T08:27:18.786Z,2.10
2022-10-08T08:32:24.944Z,2.35
2022-10-08T08:37:32.231Z,2.20
2022-10-08T08:42:50.791Z,1.95
2022-10-08T08:48:05.620Z,1.83
2022-10-08T08:53:10.871Z,1.88
2022-10-08T08:58:21.969Z,1.80
2022-10-08T09:03:30.682Z,1.90
2022-10-08T09:08:38.375Z,1.67
2022-10-08T09:13:45.555Z,1.23
2022-10-08T09:18:51.010Z,1.65
2022-10-08T09:23:54.941Z,1.30
2022-10-08T09:28:58.959Z,1.63
2022-10-08T09:34:05.491Z,1.55
2022-10-08T09:39:18.745Z,1.55
2022-10-08T09:44:23.257Z,1.90
2022-10-08T09:49:32.187Z,1.13
2022-10-08T09:54:42.904Z,1.27
2022-10-08T09:59:51.808Z,1.60
2022-10-08T10:04:56.144Z,1.20
2022-10-08T10:15:14.638Z,1.30
2022-10-08T10:20:23.590Z,1.52
2022-10-08T10:25:35.740Z,1.00
2022-10-08T10:30:49.859Z,1.15
2022-10-08T10:35:57.415Z,1.55
2022-10-08T10:41:11.724Z,1.52
2022-10-08T10:46:25.100Z,1.30
2022-10-08T10:51:56.467Z,1.35
2022-10-08T10:57:06.202Z,1.20
2022-10-08T11:02:21.094Z,1.88
2022-10-08T11:07:37.291Z,1.13
2022-10-08T11:12:50.847Z,2.45
2022-10-08T11:18:13.373Z,1.55
2022-10-08T11:23:28.875Z,1.83
2022-10-08T11:28:45.387Z,1.52
2022-10-08T11:33:49.512Z,1.55
2022-10-08T11:44:02.499Z,1.65
2022-10-08T11:49:43.708Z,1.73
2022-10-08T11:54:55.331Z,1.80
2022-10-08T12:00:07.736Z,2.17
2022-10-08T12:05:19.813Z,1.80
2022-10-08T12:10:32.045Z,2.15
2022-10-08T12:15:56.187Z,2.30
2022-10-08T12:21:36.626Z,2.03
2022-10-08T12:27:17.365Z,1.80
2022-10-08T12:32:23.447Z,2.15
2022-10-08T12:37:55.362Z,1.60
2022-10-08T12:43:10.105Z,1.60
2022-10-08T12:48:21.954Z,1.30
2022-10-08T12:53:28.058Z,1.02
2022-10-08T12:58:34.517Z,1.15
2022-10-08T13:03:42.519Z,1.40
2022-10-08T13:08:47.876Z,1.23
2022-10-08T13:13:51.852Z,0.98
2022-10-08T13:18:58.730Z,1.27
2022-10-08T13:24:02.850Z,1.23
2022-10-08T13:29:18.971Z,0.93
2022-10-08T13:34:24.576Z,1.15
2022-10-08T13:39:30.901Z,1.42
2022-10-08T13:44:34.650Z,1.05
2022-10-08T13:49:38.576Z,1.23
2022-10-08T13:54:42.379Z,1.40
2022-10-08T13:59:45.431Z,1.70
2022-10-08T14:04:49.395Z,1.30
2022-10-08T14:09:53.010Z,1.40
2022-10-08T14:14:55.754Z,1.85
2022-10-08T14:20:00.131Z,1.20
2022-10-08T14:25:02.680Z,1.10
2022-10-08T14:30:06.268Z,1.88
2022-10-08T14:35:11.136Z,1.35
2022-10-08T14:40:19.262Z,1.52
2022-10-08T14:45:22.816Z,1.33
2022-10-08T14:50:26.809Z,1.70
2022-10-08T14:55:29.383Z,1.30
2022-10-08T15:00:31.974Z,1.60
2022-10-08T15:05:36.032Z,1.48
2022-10-08T15:10:39.880Z,1.88
2022-10-08T15:15:42.626Z,1.92
2022-10-08T15:20:54.677Z,1.63
2022-10-08T15:25:58.672Z,1.98
2022-10-08T15:31:02.846Z,2.83
2022-10-08T15:36:21.987Z,2.35
2022-10-08T15:41:24.938Z,1.88
2022-10-08T15:46:29.051Z,1.90
2022-10-08T15:51:33.661Z,1.80
2022-10-08T15:56:36.358Z,1.60
2022-10-08T16:01:39.156Z,2.00
2022-10-08T16:06:45.193Z,1.95
2022-10-08T16:11:48.713Z,2.22
2022-10-08T16:16:52.380Z,1.50
2022-10-08T16:21:58.206Z,1.35
2022-10-08T16:27:00.871Z,1.48
2022-10-08T16:32:03.727Z,1.75
2022-10-08T16:37:07.801Z,1.70
2022-10-08T16:42:10.971Z,1.45
2022-10-08T16:47:13.667Z,1.30
2022-10-08T16:52:17.680Z,1.60
2022-10-08T16:57:20.794Z,1.83
2022-10-08T17:02:25.977Z,2.30
2022-10-08T17:07:31.154Z,1.90
2022-10-08T17:12:33.889Z,2.15
2022-10-08T17:17:37.056Z,2.70
2022-10-08T17:22:41.120Z,2.63
2022-10-08T17:27:45.515Z,4.38
2022-10-08T17:37:54.085Z,4.10
2022-10-08T17:42:59.115Z,4.45
2022-10-08T17:48:01.668Z,4.28
2022-10-08T17:53:05.585Z,5.60
2022-10-08T17:58:08.232Z,3.83
2022-10-08T18:03:10.861Z,3.22
2022-10-08T18:08:15.069Z,2.70
2022-10-08T18:13:17.625Z,2.65
2022-10-08T18:18:20.155Z,4.55
2022-10-08T18:23:24.355Z,3.67
2022-10-08T18:28:26.958Z,3.22
2022-10-08T18:33:32.332Z,3.25
2022-10-08T18:38:36.511Z,3.85
2022-10-08T18:43:39.162Z,3.45
2022-10-08T18:48:42.039Z,3.78
2022-10-08T18:53:46.757Z,3.42
2022-10-08T18:58:50.666Z,3.20
2022-10-08T19:03:55.737Z,3.30
2022-10-08T19:09:00.913Z,3.47
2022-10-08T19:14:04.685Z,3.25
2022-10-08T19:19:11.697Z,4.33
2022-10-08T19:24:18.011Z,4.55
2022-10-08T19:29:22.655Z,5.22
2022-10-08T19:34:27.561Z,5.10
2022-10-08T19:39:33.636Z,5.07
2022-10-08T19:44:36.787Z,5.00
2022-10-08T19:49:40.811Z,4.30
2022-10-08T19:54:44.764Z,5.25
2022-10-08T19:59:47.329Z,4.80
2022-10-08T20:04:49.883Z,3.60
2022-10-08T20:09:53.840Z,4.18
2022-10-08T20:14:56.430Z,4.18
2022-10-08T20:20:20.643Z,5.07
2022-10-08T20:25:23.452Z,4.63
2022-10-08T20:30:26.162Z,3.35
2022-10-08T20:35:28.765Z,4.90
2022-10-08T20:40:32.678Z,4.93
2022-10-08T20:45:35.850Z,5.32
2022-10-08T20:50:38.355Z,5.25
2022-10-08T20:55:42.272Z,5.32
2022-10-08T21:00:44.950Z,5.70
2022-10-08T21:05:47.507Z,6.57
2022-10-08T21:10:51.752Z,6.45
2022-10-08T21:16:00.948Z,5.20
2022-10-08T21:21:04.551Z,6.60
2022-10-08T21:26:22.725Z,6.82
2022-10-08T21:31:27.070Z,7.85
2022-10-08T21:36:31.503Z,7.68
2022-10-08T21:41:37.872Z,5.78
2022-10-08T21:46:42.975Z,6.30
2022-10-08T21:51:46.294Z,5.90
2022-10-08T21:56:50.274Z,5.45
2022-10-08T22:01:52.837Z,4.10
2022-10-08T22:06:58.283Z,5.72
2022-10-08T22:12:03.298Z,6.95
2022-10-08T22:17:06.021Z,6.20
2022-10-08T22:22:08.591Z,5.90
2022-10-08T22:27:15.182Z,6.95
2022-10-08T22:32:18.448Z,8.32
2022-10-08T22:37:20.992Z,7.18
2022-10-08T22:42:24.970Z,7.57
2022-10-08T22:47:27.531Z,4.88
2022-10-08T22:52:30.173Z,6.32
2022-10-08T22:57:34.082Z,6.40
2022-10-08T23:02:36.989Z,7.03
2022-10-08T23:07:39.614Z,6.07
2022-10-08T23:12:43.552Z,6.43
2022-10-08T23:17:46.146Z,5.50
2022-10-08T23:22:48.935Z,7.50
2022-10-08T23:27:53.063Z,7.28
2022-10-08T23:32:55.627Z,5.40
2022-10-08T23:37:58.191Z,7.13
2022-10-08T23:43:02.132Z,7.60
2022-10-08T23:48:04.754Z,7.43
2022-10-08T23:53:07.335Z,7.90
2022-10-08T23:58:11.240Z,7.75
